Time;durP1;ratioP1;P1;durP2;ratioP2;P2;SDS_P1;SDS_P2;PMS_P1;PMS_P2;Temp;Humidity;BMP_temperature;BMP_pressure;BME280_temperature;BME280_humidity;BME280_pressure;Samples;Min_cycle;Max_cycle;Signal;HPM_P1;HPM_P2
2022/05/02 00:03:01;;;;;;;7.85;6.90;;;;;;;;;;12637111;23;20714;-76
2022/05/02 00:08:02;;;;;;;7.28;6.68;;;;;;;;;;12665684;23;20271;-76
2022/05/02 00:13:06;;;;;;;8.15;6.90;;;;;;;;;;12664562;23;20493;-76
2022/05/02 00:18:08;;;;;;;6.93;6.40;;;;;;;;;;12661664;23;20185;-75
2022/05/02 00:23:10;;;;;;;7.75;6.70;;;;;;;;;;12637746;23;20259;-75
2022/05/02 00:28:13;;;;;;;9.13;5.88;;;;;;;;;;12640438;23;20523;-75
2022/05/02 00:33:14;;;;;;;7.13;6.40;;;;;;;;;;12664446;23;20211;-75
2022/05/02 00:38:15;;;;;;;7.20;6.53;;;;;;;;;;12664635;23;20181;-78
2022/05/02 00:43:17;;;;;;;6.32;5.93;;;;;;;;;;12663795;23;20287;-75
2022/05/02 00:48:20;;;;;;;6.15;5.13;;;;;;;;;;12662735;23;20200;-75
2022/05/02 00:53:23;;;;;;;6.35;5.78;;;;;;;;;;12662549;23;20185;-76
2022/05/02 00:58:24;;;;;;;5.57;5.18;;;;;;;;;;12634932;23;20193;-75
2022/05/02 01:03:25;;;;;;;5.60;5.20;;;;;;;;;;12659519;23;20205;-75
2022/05/02 01:08:29;;;;;;;6.13;5.53;;;;;;;;;;12636467;23;20188;-74
2022/05/02 01:13:33;;;;;;;4.93;4.72;;;;;;;;;;12659762;23;20177;-74
2022/05/02 01:18:34;;;;;;;7.05;5.53;;;;;;;;;;12660794;23;20207;-74
2022/05/02 01:23:35;;;;;;;5.72;5.32;;;;;;;;;;12659495;23;20218;-74
2022/05/02 01:28:46;;;;;;;6.05;5.60;;;;;;;;;;12657919;23;20301;-74
2022/05/02 01:33:48;;;;;;;9.25;6.38;;;;;;;;;;12656766;23;20211;-74
2022/05/02 01:38:50;;;;;;;6.30;5.82;;;;;;;;;;12632495;23;20185;-74
2022/05/02 01:43:51;;;;;;;7.20;5.47;;;;;;;;;;12657054;23;20288;-74
2022/05/02 01:48:52;;;;;;;6.82;6.18;;;;;;;;;;12659850;23;20647;-74
2022/05/02 01:53:53;;;;;;;5.68;5.25;;;;;;;;;;12660770;23;20207;-74
2022/05/02 01:58:54;;;;;;;7.53;5.43;;;;;;;;;;12660920;23;20173;-74
2022/05/02 02:03:56;;;;;;;5.90;5.15;;;;;;;;;;12656212;23;20209;-75
2022/05/02 02:08:57;;;;;;;6.07;5.10;;;;;;;;;;12658691;23;20201;-75
2022/05/02 02:13:58;;;;;;;5.82;5.28;;;;;;;;;;12634393;23;20189;-75
2022/05/02 02:18:59;;;;;;;6.63;6.00;;;;;;;;;;12658596;23;20180;-74
2022/05/02 02:24:01;;;;;;;6.45;5.55;;;;;;;;;;12659615;23;20188;-74
2022/05/02 02:29:03;;;;;;;8.38;6.72;;;;;;;;;;12659511;23;20193;-76
2022/05/02 02:34:04;;;;;;;6.10;5.53;;;;;;;;;;12659292;23;20291;-74
2022/05/02 02:39:05;;;;;;;6.25;5.68;;;;;;;;;;12662071;23;20181;-77
2022/05/02 02:44:06;;;;;;;6.75;6.00;;;;;;;;;;12658881;23;20205;-75
2022/05/02 02:49:07;;;;;;;6.13;5.65;;;;;;;;;;12660318;23;20204;-75
2022/05/02 02:54:08;;;;;;;5.95;5.43;;;;;;;;;;12634474;23;20567;-74
2022/05/02 02:59:10;;;;;;;8.02;6.43;;;;;;;;;;12657808;23;20360;-74
2022/05/02 03:09:31;;;;;;;6.68;6.22;;;;;;;;;;12660008;23;20197;-74
2022/05/02 03:14:32;;;;;;;6.32;5.90;;;;;;;;;;12656808;23;20183;-74
2022/05/02 03:19:33;;;;;;;6.38;5.75;;;;;;;;;;12658994;23;20189;-74
2022/05/02 03:24:35;;;;;;;6.75;6.15;;;;;;;;;;12629204;23;20221;-74
2022/05/02 03:29:36;;;;;;;6.43;5.93;;;;;;;;;;12658945;23;20192;-75
2022/05/02 03:34:37;;;;;;;6.63;5.78;;;;;;;;;;12659532;23;20201;-74
2022/05/02 03:39:38;;;;;;;6.38;5.93;;;;;;;;;;12659937;23;20196;-74
2022/05/02 03:44:39;;;;;;;7.43;6.25;;;;;;;;;;12655912;23;20308;-75
2022/05/02 03:49:40;;;;;;;5.20;5.00;;;;;;;;;;12659827;23;20189;-74
2022/05/02 03:54:41;;;;;;;5.95;5.45;;;;;;;;;;12659745;23;20550;-75
2022/05/02 03:59:42;;;;;;;6.32;5.82;;;;;;;;;;12660295;23;20180;-75
2022/05/02 04:04:44;;;;;;;5.45;5.15;;;;;;;;;;12658519;23;20211;-75
2022/05/02 04:09:45;;;;;;;6.55;5.93;;;;;;;;;;12608054;23;20197;-75
2022/05/02 04:14:46;;;;;;;6.72;6.30;;;;;;;;;;12656479;23;20298;-75
2022/05/02 04:19:47;;;;;;;6.38;5.78;;;;;;;;;;12632883;23;20286;-75
2022/05/02 04:24:48;;;;;;;6.15;5.72;;;;;;;;;;12656754;23;20191;-76
2022/05/02 04:29:49;;;;;;;6.30;5.78;;;;;;;;;;12666683;23;20189;-75
2022/05/02 04:34:52;;;;;;;6.68;6.13;;;;;;;;;;12661284;23;20205;-75
2022/05/02 04:39:53;;;;;;;6.05;5.65;;;;;;;;;;12663677;23;20515;-75
2022/05/02 04:44:54;;;;;;;7.43;6.47;;;;;;;;;;12663980;23;20480;-76
2022/05/02 04:49:55;;;;;;;8.23;6.35;;;;;;;;;;12662807;23;20232;-75
2022/05/02 04:54:56;;;;;;;7.45;6.78;;;;;;;;;;12663210;23;20181;-75
2022/05/02 04:59:57;;;;;;;7.40;6.80;;;;;;;;;;12663847;23;20193;-75
2022/05/02 05:04:58;;;;;;;8.77;7.78;;;;;;;;;;12663003;23;20826;-76
2022/05/02 05:09:59;;;;;;;8.50;6.88;;;;;;;;;;12666921;23;20246;-75
2022/05/02 05:20:44;;;;;;;7.20;6.50;;;;;;;;;;12668517;23;20192;-75
2022/05/02 05:26:05;;;;;;;10.90;6.75;;;;;;;;;;12670681;23;20183;-75
2022/05/02 05:31:15;;;;;;;6.75;6.05;;;;;;;;;;12641099;23;20200;-75
2022/05/02 05:36:35;;;;;;;7.95;6.40;;;;;;;;;;12639314;23;20192;-75
2022/05/02 05:41:48;;;;;;;7.50;6.90;;;;;;;;;;12664989;23;20173;-74
2022/05/02 05:46:50;;;;;;;8.75;6.35;;;;;;;;;;12607851;23;20220;-75
2022/05/02 05:51:57;;;;;;;6.43;5.82;;;;;;;;;;12609595;23;20180;-75
2022/05/02 05:57:01;;;;;;;6.40;5.95;;;;;;;;;;12610271;23;20224;-76
2022/05/02 06:02:02;;;;;;;7.55;6.43;;;;;;;;;;12608396;23;20210;-75
2022/05/02 06:07:04;;;;;;;8.98;6.05;;;;;;;;;;12596854;23;20201;-76
2022/05/02 06:12:05;;;;;;;6.95;6.22;;;;;;;;;;12608647;23;20189;-76
2022/05/02 06:22:28;;;;;;;6.60;6.18;;;;;;;;;;12608223;23;20523;-75
2022/05/02 06:27:29;;;;;;;10.25;6.20;;;;;;;;;;12608496;23;20200;-75
2022/05/02 06:32:31;;;;;;;7.00;6.10;;;;;;;;;;12599110;23;20225;-75
2022/05/02 06:37:46;;;;;;;7.68;6.00;;;;;;;;;;12575118;23;20185;-73
2022/05/02 06:42:53;;;;;;;7.75;6.15;;;;;;;;;;12623773;23;20667;-74
2022/05/02 06:48:13;;;;;;;6.35;5.78;;;;;;;;;;12641698;23;20211;-75
2022/05/02 06:53:31;;;;;;;9.48;6.47;;;;;;;;;;12667671;23;20255;-75
2022/05/02 06:58:35;;;;;;;6.50;5.88;;;;;;;;;;12668666;23;20244;-73
2022/05/02 07:03:36;;;;;;;6.32;5.70;;;;;;;;;;12666684;23;20677;-76
2022/05/02 07:08:57;;;;;;;11.98;6.97;;;;;;;;;;12642122;23;20203;-75
2022/05/02 07:14:10;;;;;;;7.47;5.90;;;;;;;;;;12667471;23;20192;-75
2022/05/02 07:19:27;;;;;;;7.63;6.53;;;;;;;;;;12641006;23;20999;-75
2022/05/02 07:24:36;;;;;;;6.15;5.55;;;;;;;;;;12666380;23;20568;-74
2022/05/02 07:29:40;;;;;;;9.40;6.25;;;;;;;;;;12666465;23;20268;-75
2022/05/02 07:34:41;;;;;;;6.30;5.22;;;;;;;;;;12664890;23;20207;-75
2022/05/02 07:39:43;;;;;;;6.30;5.65;;;;;;;;;;12665709;23;20177;-74
2022/05/02 07:44:45;;;;;;;6.50;4.80;;;;;;;;;;12664385;23;20205;-75
2022/05/02 07:49:50;;;;;;;8.93;4.93;;;;;;;;;;12663952;23;20651;-74
2022/05/02 07:54:52;;;;;;;6.43;4.18;;;;;;;;;;12639513;23;20275;-75
2022/05/02 07:59:55;;;;;;;2.92;2.70;;;;;;;;;;12664535;23;20185;-73
2022/05/02 08:04:57;;;;;;;3.10;3.00;;;;;;;;;;12637204;23;20201;-74
2022/05/02 08:10:16;;;;;;;4.28;3.65;;;;;;;;;;12663862;23;20589;-75
2022/05/02 08:15:47;;;;;;;3.22;3.13;;;;;;;;;;12664662;23;20212;-75
2022/05/02 08:21:01;;;;;;;3.47;3.17;;;;;;;;;;12633449;23;20196;-75
2022/05/02 08:31:41;;;;;;;2.85;2.67;;;;;;;;;;12662841;23;20208;-74
2022/05/02 08:36:49;;;;;;;3.72;3.50;;;;;;;;;;12637057;23;20190;-76
2022/05/02 08:42:02;;;;;;;4.13;3.28;;;;;;;;;;12656899;23;20212;-75
2022/05/02 08:47:26;;;;;;;7.93;3.75;;;;;;;;;;12604072;23;20185;-77
2022/05/02 08:52:33;;;;;;;3.72;3.53;;;;;;;;;;12604707;23;20197;-74
2022/05/02 08:57:53;;;;;;;4.50;3.22;;;;;;;;;;12609435;23;20212;-77
2022/05/02 09:03:03;;;;;;;4.63;3.65;;;;;;;;;;12610868;23;20201;-77
2022/05/02 09:08:13;;;;;;;6.03;3.90;;;;;;;;;;12611210;23;20224;-76
2022/05/02 09:13:32;;;;;;;3.88;3.67;;;;;;;;;;12609393;23;20505;-77
2022/05/02 09:18:42;;;;;;;4.10;3.78;;;;;;;;;;12609268;23;20184;-77
2022/05/02 09:23:43;;;;;;;3.88;3.67;;;;;;;;;;12607362;23;20188;-76
2022/05/02 09:29:08;;;;;;;4.65;3.83;;;;;;;;;;12608781;23;20193;-76
2022/05/02 09:34:17;;;;;;;4.05;3.78;;;;;;;;;;12608752;23;20201;-76
2022/05/02 09:39:25;;;;;;;3.67;3.38;;;;;;;;;;12608280;23;20181;-76
2022/05/02 09:50:15;;;;;;;6.15;4.07;;;;;;;;;;12667153;23;20308;-76
2022/05/02 10:01:08;;;;;;;7.25;4.07;;;;;;;;;;12667885;23;20288;-76
2022/05/02 10:06:11;;;;;;;6.88;4.38;;;;;;;;;;12667806;23;20263;-76
2022/05/02 10:11:16;;;;;;;5.65;4.47;;;;;;;;;;12665185;23;20253;-76
2022/05/02 10:16:36;;;;;;;4.60;4.18;;;;;;;;;;12664701;23;20177;-76
2022/05/02 10:21:55;;;;;;;4.72;4.35;;;;;;;;;;12664875;23;20184;-76
2022/05/02 10:27:04;;;;;;;4.60;3.60;;;;;;;;;;12664466;23;20562;-76
2022/05/02 10:32:08;;;;;;;5.28;4.80;;;;;;;;;;12662386;23;20276;-76
2022/05/02 10:37:10;;;;;;;4.35;3.97;;;;;;;;;;12664090;23;20200;-76
2022/05/02 10:42:13;;;;;;;3.85;3.58;;;;;;;;;;12663145;23;20316;-75
2022/05/02 10:47:16;;;;;;;3.90;3.65;;;;;;;;;;12663684;23;20204;-76
2022/05/02 10:52:26;;;;;;;3.95;3.60;;;;;;;;;;12636819;23;20555;-76
2022/05/02 10:57:40;;;;;;;4.13;3.70;;;;;;;;;;12662811;23;20189;-73
2022/05/02 11:02:59;;;;;;;4.38;4.07;;;;;;;;;;12661716;23;20247;-76
2022/05/02 11:08:11;;;;;;;4.15;3.85;;;;;;;;;;12657989;23;20221;-77
2022/05/02 11:13:20;;;;;;;4.07;3.88;;;;;;;;;;12656641;23;20193;-75
2022/05/02 11:24:01;;;;;;;6.57;3.75;;;;;;;;;;12659390;23;20260;-75
2022/05/02 11:29:07;;;;;;;4.68;3.80;;;;;;;;;;12660369;23;20200;-75
2022/05/02 11:34:28;;;;;;;4.50;4.30;;;;;;;;;;12657886;23;20205;-75
2022/05/02 11:39:36;;;;;;;8.05;4.20;;;;;;;;;;12658357;23;20223;-74
2022/05/02 11:44:45;;;;;;;7.43;4.05;;;;;;;;;;12654803;23;20690;-74
2022/05/02 11:49:54;;;;;;;5.82;4.32;;;;;;;;;;12657650;23;20603;-74
2022/05/02 11:54:57;;;;;;;4.43;3.80;;;;;;;;;;12654614;23;20239;-74
2022/05/02 12:00:05;;;;;;;5.03;4.50;;;;;;;;;;12654720;23;20184;-74
2022/05/02 12:05:23;;;;;;;5.05;3.85;;;;;;;;;;12657915;23;20216;-74
2022/05/02 12:10:36;;;;;;;4.15;3.95;;;;;;;;;;12660717;23;20255;-74
2022/05/02 12:15:53;;;;;;;4.57;4.25;;;;;;;;;;12658182;23;20560;-75
2022/05/02 12:20:56;;;;;;;5.25;4.75;;;;;;;;;;12660901;23;20177;-75
2022/05/02 12:25:58;;;;;;;4.68;4.32;;;;;;;;;;12607537;23;20660;-75
2022/05/02 12:30:59;;;;;;;6.00;4.45;;;;;;;;;;12656704;23;20209;-74
2022/05/02 12:36:00;;;;;;;5.60;5.13;;;;;;;;;;12654000;23;20483;-76
2022/05/02 12:41:02;;;;;;;5.05;4.80;;;;;;;;;;12652862;23;20185;-75
2022/05/02 12:46:08;;;;;;;5.07;4.68;;;;;;;;;;12652557;23;20713;-75
2022/05/02 12:51:16;;;;;;;5.25;4.97;;;;;;;;;;12656767;23;20216;-74
2022/05/02 12:56:17;;;;;;;6.75;5.55;;;;;;;;;;12655937;23;20229;-75
2022/05/02 13:01:23;;;;;;;4.90;4.60;;;;;;;;;;12655667;23;20288;-75
2022/05/02 13:06:24;;;;;;;5.35;4.70;;;;;;;;;;12631935;23;20184;-75
2022/05/02 13:11:35;;;;;;;6.40;5.43;;;;;;;;;;12653484;23;20300;-75
2022/05/02 13:16:36;;;;;;;4.82;4.53;;;;;;;;;;12657418;23;20184;-75
2022/05/02 13:21:38;;;;;;;4.85;4.53;;;;;;;;;;12654294;23;20655;-75
2022/05/02 13:26:40;;;;;;;4.78;4.28;;;;;;;;;;12609874;23;20209;-77
2022/05/02 13:31:45;;;;;;;5.65;5.20;;;;;;;;;;12578357;23;20273;-74
2022/05/02 13:36:48;;;;;;;5.18;4.78;;;;;;;;;;12637009;23;20177;-74
2022/05/02 13:41:54;;;;;;;5.47;5.10;;;;;;;;;;12643451;23;20176;-75
2022/05/02 13:46:59;;;;;;;6.38;5.30;;;;;;;;;;12646526;23;20173;-75
2022/05/02 13:52:08;;;;;;;5.45;4.95;;;;;;;;;;12623863;23;20196;-75
2022/05/02 13:57:25;;;;;;;5.57;4.95;;;;;;;;;;12656049;23;20795;-74
2022/05/02 14:02:57;;;;;;;5.00;4.70;;;;;;;;;;12660980;23;20149;-73
2022/05/02 14:08:07;;;;;;;8.30;4.88;;;;;;;;;;12626048;23;20192;-74
2022/05/02 14:13:18;;;;;;;6.18;5.32;;;;;;;;;;12629141;23;20177;-74
2022/05/02 14:18:21;;;;;;;6.38;5.78;;;;;;;;;;12648421;23;20647;-74
2022/05/02 14:23:22;;;;;;;9.05;5.80;;;;;;;;;;12653668;23;20185;-74
2022/05/02 14:28:24;;;;;;;5.95;5.35;;;;;;;;;;12652641;23;20508;-76
2022/05/02 14:33:34;;;;;;;7.45;5.43;;;;;;;;;;12648865;23;20204;-76
2022/05/02 14:38:38;;;;;;;5.18;4.88;;;;;;;;;;12650573;23;20177;-76
2022/05/02 14:43:39;;;;;;;5.28;4.88;;;;;;;;;;12644622;23;20173;-76
2022/05/02 14:48:41;;;;;;;4.78;4.15;;;;;;;;;;12643097;23;20426;-76
2022/05/02 14:53:43;;;;;;;3.88;3.65;;;;;;;;;;12648249;23;20176;-76
2022/05/02 14:58:46;;;;;;;4.78;4.53;;;;;;;;;;12646640;23;20177;-77
2022/05/02 15:03:48;;;;;;;6.93;4.82;;;;;;;;;;12616960;23;20304;-76
2022/05/02 15:09:08;;;;;;;6.40;4.43;;;;;;;;;;12642436;23;20192;-76
2022/05/02 15:14:21;;;;;;;7.90;5.63;;;;;;;;;;12643030;23;20188;-76
2022/05/02 15:19:34;;;;;;;4.93;4.40;;;;;;;;;;12645613;23;20212;-75
2022/05/02 15:24:52;;;;;;;4.32;4.03;;;;;;;;;;12643140;23;20204;-76
2022/05/02 15:40:57;;;;;;;5.18;4.70;;;;;;;;;;12645614;23;20566;-76
2022/05/02 15:45:58;;;;;;;5.70;5.15;;;;;;;;;;12644464;23;20239;-77
2022/05/02 15:51:15;;;;;;;4.55;4.20;;;;;;;;;;12622503;23;20584;-77
2022/05/02 15:56:19;;;;;;;4.70;4.40;;;;;;;;;;12645475;23;20173;-76
2022/05/02 16:01:35;;;;;;;7.30;4.85;;;;;;;;;;12639836;23;20280;-76
2022/05/02 16:06:48;;;;;;;5.35;5.05;;;;;;;;;;12643583;23;20239;-77
2022/05/02 16:11:50;;;;;;;5.20;4.85;;;;;;;;;;12647517;23;20196;-76
2022/05/02 16:16:51;;;;;;;5.68;5.38;;;;;;;;;;12648220;23;20181;-75
2022/05/02 16:21:53;;;;;;;5.13;4.90;;;;;;;;;;12619473;23;20252;-76
2022/05/02 16:26:56;;;;;;;6.53;5.15;;;;;;;;;;12616568;23;20212;-76
2022/05/02 16:32:00;;;;;;;6.78;5.18;;;;;;;;;;12619511;23;20663;-76
2022/05/02 16:37:01;;;;;;;6.22;4.85;;;;;;;;;;12617277;23;20542;-77
2022/05/02 16:42:04;;;;;;;6.45;4.40;;;;;;;;;;12645202;23;20185;-78
2022/05/02 16:47:05;;;;;;;5.20;4.70;;;;;;;;;;12641645;23;20181;-77
2022/05/02 16:52:06;;;;;;;4.63;4.32;;;;;;;;;;12640517;23;20215;-78
2022/05/02 16:57:07;;;;;;;5.13;4.78;;;;;;;;;;12641480;23;20200;-77
2022/05/02 17:02:11;;;;;;;4.28;4.07;;;;;;;;;;12636493;23;20204;-78
2022/05/02 17:07:13;;;;;;;4.97;4.57;;;;;;;;;;12644485;23;20299;-77
2022/05/02 17:12:14;;;;;;;4.78;4.40;;;;;;;;;;12648019;23;20180;-77
2022/05/02 17:17:15;;;;;;;7.25;5.18;;;;;;;;;;12621250;23;20184;-78
2022/05/02 17:22:18;;;;;;;9.45;4.57;;;;;;;;;;12653346;23;20205;-77
2022/05/02 17:27:21;;;;;;;6.20;4.53;;;;;;;;;;12650113;23;20666;-77
2022/05/02 17:32:25;;;;;;;5.72;4.20;;;;;;;;;;12624958;23;20961;-78
2022/05/02 17:37:26;;;;;;;5.35;4.10;;;;;;;;;;12629669;23;20188;-77
2022/05/02 17:42:28;;;;;;;3.40;3.20;;;;;;;;;;12623962;23;20193;-77
2022/05/02 17:47:30;;;;;;;3.05;2.72;;;;;;;;;;12623355;23;20292;-77
2022/05/02 17:52:32;;;;;;;3.17;3.03;;;;;;;;;;12646548;23;20181;-77
2022/05/02 17:57:33;;;;;;;3.00;2.90;;;;;;;;;;12646179;23;20572;-77
2022/05/02 18:02:38;;;;;;;5.68;3.65;;;;;;;;;;12624453;23;20233;-77
2022/05/02 18:07:48;;;;;;;3.97;3.70;;;;;;;;;;12622621;23;20264;-77
2022/05/02 18:13:08;;;;;;;3.67;3.58;;;;;;;;;;12643447;23;20177;-76
2022/05/02 18:18:10;;;;;;;3.15;3.05;;;;;;;;;;12642463;23;20181;-77
2022/05/02 18:23:12;;;;;;;6.60;3.38;;;;;;;;;;12646502;23;20200;-77
2022/05/02 18:28:31;;;;;;;5.70;3.25;;;;;;;;;;12560604;23;20251;-77
2022/05/02 18:33:41;;;;;;;2.95;2.60;;;;;;;;;;12586920;23;20201;-77
2022/05/02 18:38:57;;;;;;;2.95;2.75;;;;;;;;;;12586367;23;20242;-77
2022/05/02 18:43:59;;;;;;;2.88;2.63;;;;;;;;;;12587863;23;20244;-77
2022/05/02 18:54:23;;;;;;;3.25;3.05;;;;;;;;;;12587773;23;20208;-77
2022/05/02 18:59:24;;;;;;;2.88;2.78;;;;;;;;;;12582717;23;20268;-77
2022/05/02 19:04:25;;;;;;;3.08;2.63;;;;;;;;;;12584080;23;20209;-77
2022/05/02 19:09:27;;;;;;;2.95;2.80;;;;;;;;;;12583864;23;20801;-77
2022/05/02 19:14:32;;;;;;;3.63;3.42;;;;;;;;;;12640477;23;20235;-77
2022/05/02 19:19:33;;;;;;;4.60;3.72;;;;;;;;;;12645225;23;20212;-78
2022/05/02 19:24:51;;;;;;;4.45;4.18;;;;;;;;;;12639919;23;20280;-77
2022/05/02 19:30:00;;;;;;;4.25;3.95;;;;;;;;;;12641336;23;20698;-78
2022/05/02 19:40:46;;;;;;;4.82;4.25;;;;;;;;;;12533292;23;20188;-78
2022/05/02 19:45:51;;;;;;;5.15;4.85;;;;;;;;;;12619607;23;20185;-77
2022/05/02 19:50:53;;;;;;;6.00;5.07;;;;;;;;;;12647005;23;20256;-77
2022/05/02 19:55:55;;;;;;;7.57;5.22;;;;;;;;;;12644838;23;20188;-76
2022/05/02 20:00:57;;;;;;;7.05;6.15;;;;;;;;;;12646668;23;20283;-75
2022/05/02 20:05:58;;;;;;;7.47;5.85;;;;;;;;;;12647350;23;20177;-75
2022/05/02 20:10:59;;;;;;;6.78;6.03;;;;;;;;;;12648072;23;20883;-76
2022/05/02 20:16:00;;;;;;;7.40;6.80;;;;;;;;;;12622917;23;20189;-75
2022/05/02 20:21:05;;;;;;;7.32;6.78;;;;;;;;;;12642490;23;20181;-75
2022/05/02 20:26:06;;;;;;;12.68;7.38;;;;;;;;;;12646614;23;20208;-76
2022/05/02 20:31:07;;;;;;;7.07;5.38;;;;;;;;;;12648779;23;20727;-76
2022/05/02 20:41:29;;;;;;;6.75;6.10;;;;;;;;;;12647261;23;20192;-76
2022/05/02 20:46:35;;;;;;;8.13;5.68;;;;;;;;;;12619727;23;20173;-77
2022/05/02 20:51:37;;;;;;;8.90;5.78;;;;;;;;;;12645648;23;20196;-76
2022/05/02 20:56:38;;;;;;;9.77;5.85;;;;;;;;;;12622034;23;20176;-76
2022/05/02 21:01:40;;;;;;;6.45;5.72;;;;;;;;;;12649180;23;20252;-76
2022/05/02 21:06:41;;;;;;;6.40;5.78;;;;;;;;;;12624509;23;20212;-76
2022/05/02 21:12:00;;;;;;;7.03;6.38;;;;;;;;;;12647795;23;20228;-76
2022/05/02 21:17:10;;;;;;;7.35;6.15;;;;;;;;;;12647981;23;20236;-76
2022/05/02 21:22:30;;;;;;;6.30;5.55;;;;;;;;;;12598257;23;20295;-76
2022/05/02 21:27:42;;;;;;;6.22;5.90;;;;;;;;;;12600379;23;20212;-76
2022/05/02 21:32:59;;;;;;;9.63;6.22;;;;;;;;;;12621272;23;20200;-76
2022/05/02 21:38:04;;;;;;;7.32;6.63;;;;;;;;;;12647213;23;20188;-75
2022/05/02 21:43:08;;;;;;;7.70;7.03;;;;;;;;;;12643459;23;20283;-76
2022/05/02 21:48:11;;;;;;;8.98;7.80;;;;;;;;;;12619752;23;20255;-76
2022/05/02 21:53:12;;;;;;;6.57;5.97;;;;;;;;;;12647202;23;20181;-76
2022/05/02 21:58:13;;;;;;;12.63;9.65;;;;;;;;;;12616606;23;20516;-76
2022/05/02 22:03:14;;;;;;;11.25;7.57;;;;;;;;;;12638656;23;20270;-76
2022/05/02 22:08:15;;;;;;;8.50;7.82;;;;;;;;;;12647546;23;20188;-76
2022/05/02 22:13:16;;;;;;;9.63;8.63;;;;;;;;;;12650072;23;20283;-75
2022/05/02 22:18:17;;;;;;;11.02;7.55;;;;;;;;;;12622147;23;20414;-75
2022/05/02 22:23:18;;;;;;;8.38;7.15;;;;;;;;;;12621725;23;20216;-75
2022/05/02 22:28:19;;;;;;;7.53;6.72;;;;;;;;;;12594327;23;20665;-77
2022/05/02 22:33:20;;;;;;;7.78;7.00;;;;;;;;;;12643137;23;20211;-77
2022/05/02 22:38:22;;;;;;;7.05;6.43;;;;;;;;;;12649749;23;20267;-77
2022/05/02 22:43:23;;;;;;;7.63;6.97;;;;;;;;;;12648382;23;20691;-78
2022/05/02 22:48:24;;;;;;;6.93;6.43;;;;;;;;;;12649556;23;20184;-77
2022/05/02 22:53:25;;;;;;;6.25;5.75;;;;;;;;;;12648423;23;20204;-76
2022/05/02 22:58:31;;;;;;;8.23;7.43;;;;;;;;;;12646456;23;20272;-77
2022/05/02 23:03:44;;;;;;;8.02;7.22;;;;;;;;;;12643656;23;20719;-76
2022/05/02 23:08:51;;;;;;;7.30;6.63;;;;;;;;;;12646988;23;20276;-76
2022/05/02 23:13:52;;;;;;;7.10;6.53;;;;;;;;;;12647421;23;20652;-76
2022/05/02 23:18:54;;;;;;;9.13;6.20;;;;;;;;;;12646885;23;20181;-76
2022/05/02 23:23:55;;;;;;;7.30;6.60;;;;;;;;;;12647920;23;20185;-76
2022/05/02 23:28:56;;;;;;;8.82;6.55;;;;;;;;;;12648827;23;20279;-76
2022/05/02 23:34:02;;;;;;;7.00;6.30;;;;;;;;;;12644708;23;20263;-73
2022/05/02 23:39:07;;;;;;;7.78;6.93;;;;;;;;;;12651513;23;20181;-75
2022/05/02 23:44:08;;;;;;;8.20;7.47;;;;;;;;;;12649065;23;20199;-75
2022/05/02 23:49:30;;;;;;;8.55;7.10;;;;;;;;;;12623482;23;20201;-74
2022/05/02 23:54:39;;;;;;;7.97;7.07;;;;;;;;;;12648011;23;20189;-76
2022/05/02 23:59:53;;;;;;;7.93;6.75;;;;;;;;;;12623020;23;20185;-75
